WXM80 ListenWXM80 Stop

You find our weather info also at:

UK Metoffice

WeatherCloud

Weather Underground

Northeastern Weather Network

AWEKAS

Citizen Weather Observer Program (CWOP)

HAMweather, WeatherForYou, PWS Weather


Weather Underground History page Text

Daily Summary for July 17, 2017 Units:  Both    English   Metric
« Previous Day
Next Day »
Daily Weekly Monthly Yearly Custom
  High: Low: Average:
Temperature: 86.0 °F /  30 °C 68.6 °F /  20.3 °C 77.2 °F /  25.1 °C
Dew Point: 75.1 °F /  23.9 °C 65.9 °F /  18.8 °C 70.5 °F /  21.4 °C
Humidity: 96 % 61 % 81 %
Wind Speed: 5.7 mph /  9.2 km/h - 0.7 mph /  1.1 km/h
Wind Gust: 10.4 mph /  16.7 km/h - -
Wind:- - SSE
Pressure: 30.04 in /  1017.2 hPa 29.95 in /  1014.1 hPa -
Precipitation: 0.00 in /  0 mm    
Historical Graphs
 
 
Tabular Data for July 17, 2017
Time Temperature Dew Point Pressure Wind Wind Speed Wind Gust Humidity Rainfall Rate (Hourly)
00:00 73.3 °F /  22.9 °C 67.8 °F /  19.9 °C 29.96 in /  1014.4 hPa Calm   1.2 mph /  1.9 km/h 83 % 0.00 in /  0 mm
00:05 73.3 °F /  22.9 °C 67.5 °F /  19.7 °C 29.96 in /  1014.4 hPa SW 0.9 mph /  1.4 km/h 2.3 mph /  3.7 km/h 82 % 0.00 in /  0 mm
00:10 73.3 °F /  22.9 °C 67.8 °F /  19.9 °C 29.96 in /  1014.4 hPa SW 0.2 mph /  0.3 km/h 1.2 mph /  1.9 km/h 83 % 0.00 in /  0 mm
00:15 73.3 °F /  22.9 °C 67.8 °F /  19.9 °C 29.96 in /  1014.4 hPa West 0.1 mph /  0.2 km/h 1.2 mph /  1.9 km/h 83 % 0.00 in /  0 mm
00:20 73.4 °F /  23 °C 67.9 °F /  19.9 °C 29.96 in /  1014.4 hPa Calm   1.2 mph /  1.9 km/h 83 % 0.00 in /  0 mm
00:25 73.4 °F /  23 °C 67.9 °F /  19.9 °C 29.96 in /  1014.4 hPa WSW 0.1 mph /  0.2 km/h 1.2 mph /  1.9 km/h 83 % 0.00 in /  0 mm
00:30 73.4 °F /  23 °C 67.9 °F /  19.9 °C 29.96 in /  1014.4 hPa WSW 0.3 mph /  0.5 km/h 2.3 mph /  3.7 km/h 83 % 0.00 in /  0 mm
00:35 73.5 °F /  23.1 °C 68.0 °F /  20 °C 29.96 in /  1014.4 hPa WSW 0.9 mph /  1.4 km/h 3.5 mph /  5.6 km/h 83 % 0.00 in /  0 mm
00:40 73.5 °F /  23.1 °C 68.0 °F /  20 °C 29.96 in /  1014.4 hPa Calm     83 % 0.00 in /  0 mm
00:45 73.5 °F /  23.1 °C 68.0 °F /  20 °C 29.96 in /  1014.4 hPa SW 0.1 mph /  0.2 km/h 2.3 mph /  3.7 km/h 83 % 0.00 in /  0 mm
00:50 73.5 °F /  23.1 °C 68.0 °F /  20 °C 29.96 in /  1014.4 hPa SW 1.8 mph /  2.9 km/h 3.5 mph /  5.6 km/h 83 % 0.00 in /  0 mm
00:55 73.5 °F /  23.1 °C 68.0 °F /  20 °C 29.96 in /  1014.4 hPa Calm     83 % 0.00 in /  0 mm
01:04 73.6 °F /  23.1 °C 68.1 °F /  20.1 °C 29.96 in /  1014.4 hPa Calm   1.2 mph /  1.9 km/h 83 % 0.00 in /  0 mm
01:09 73.5 °F /  23.1 °C 68.0 °F /  20 °C 29.96 in /  1014.4 hPa Calm     83 % 0.00 in /  0 mm
01:15 73.5 °F /  23.1 °C 68.0 °F /  20 °C 29.96 in /  1014.4 hPa Calm     83 % 0.00 in /  0 mm
01:20 73.4 °F /  23 °C 67.9 °F /  19.9 °C 29.96 in /  1014.4 hPa Calm     83 % 0.00 in /  0 mm
01:25 73.3 °F /  22.9 °C 67.8 °F /  19.9 °C 29.96 in /  1014.4 hPa Calm     83 % 0.00 in /  0 mm
01:30 73.2 °F /  22.9 °C 67.7 °F /  19.8 °C 29.96 in /  1014.4 hPa Calm     83 % 0.00 in /  0 mm
01:35 73.2 °F /  22.9 °C 67.7 °F /  19.8 °C 29.96 in /  1014.4 hPa Calm     83 % 0.00 in /  0 mm
01:40 73.1 °F /  22.8 °C 67.6 °F /  19.8 °C 29.96 in /  1014.4 hPa Calm     83 % 0.00 in /  0 mm
01:45 73.0 °F /  22.8 °C 67.5 °F /  19.7 °C 29.96 in /  1014.4 hPa SW 0.7 mph /  1.1 km/h 1.2 mph /  1.9 km/h 83 % 0.00 in /  0 mm
01:50 72.9 °F /  22.7 °C 67.4 °F /  19.7 °C 29.96 in /  1014.4 hPa Calm     83 % 0.00 in /  0 mm
01:55 72.8 °F /  22.7 °C 67.3 °F /  19.6 °C 29.96 in /  1014.4 hPa Calm     83 % 0.00 in /  0 mm
02:00 72.7 °F /  22.6 °C 67.2 °F /  19.6 °C 29.96 in /  1014.4 hPa Calm     83 % 0.00 in /  0 mm
02:05 72.6 °F /  22.6 °C 67.5 °F /  19.7 °C 29.95 in /  1014.1 hPa Calm     84 % 0.00 in /  0 mm
02:10 72.5 °F /  22.5 °C 67.4 °F /  19.7 °C 29.96 in /  1014.4 hPa Calm     84 % 0.00 in /  0 mm
02:15 72.4 °F /  22.4 °C 67.6 °F /  19.8 °C 29.95 in /  1014.1 hPa Calm     85 % 0.00 in /  0 mm
02:20 72.2 °F /  22.3 °C 67.4 °F /  19.7 °C 29.95 in /  1014.1 hPa Calm     85 % 0.00 in /  0 mm
02:25 72.1 °F /  22.3 °C 67.3 °F /  19.6 °C 29.95 in /  1014.1 hPa Calm     85 % 0.00 in /  0 mm
02:30 72.0 °F /  22.2 °C 67.2 °F /  19.6 °C 29.95 in /  1014.1 hPa Calm     85 % 0.00 in /  0 mm
02:35 71.9 °F /  22.2 °C 67.5 °F /  19.7 °C 29.95 in /  1014.1 hPa Calm     86 % 0.00 in /  0 mm
02:40 71.8 °F /  22.1 °C 67.4 °F /  19.7 °C 29.95 in /  1014.1 hPa Calm     86 % 0.00 in /  0 mm
02:45 71.6 °F /  22 °C 67.2 °F /  19.6 °C 29.95 in /  1014.1 hPa Calm     86 % 0.00 in /  0 mm
02:50 71.5 °F /  21.9 °C 67.1 °F /  19.5 °C 29.95 in /  1014.1 hPa Calm     86 % 0.00 in /  0 mm
02:55 71.4 °F /  21.9 °C 67.0 °F /  19.4 °C 29.95 in /  1014.1 hPa Calm     86 % 0.00 in /  0 mm
03:00 71.3 °F /  21.8 °C 67.2 °F /  19.6 °C 29.96 in /  1014.4 hPa Calm     87 % 0.00 in /  0 mm
03:05 71.1 °F /  21.7 °C 67.0 °F /  19.4 °C 29.95 in /  1014.1 hPa Calm     87 % 0.00 in /  0 mm
03:10 71.0 °F /  21.7 °C 67.3 °F /  19.6 °C 29.95 in /  1014.1 hPa Calm     88 % 0.00 in /  0 mm
03:15 70.9 °F /  21.6 °C 66.8 °F /  19.3 °C 29.95 in /  1014.1 hPa Calm     87 % 0.00 in /  0 mm
03:20 70.8 °F /  21.6 °C 67.1 °F /  19.5 °C 29.96 in /  1014.4 hPa Calm     88 % 0.00 in /  0 mm
03:25 70.7 °F /  21.5 °C 67.0 °F /  19.4 °C 29.96 in /  1014.4 hPa Calm     88 % 0.00 in /  0 mm
03:30 70.5 °F /  21.4 °C 66.8 °F /  19.3 °C 29.96 in /  1014.4 hPa Calm     88 % 0.00 in /  0 mm
03:35 70.4 °F /  21.3 °C 66.7 °F /  19.3 °C 29.96 in /  1014.4 hPa Calm     88 % 0.00 in /  0 mm
03:41 70.3 °F /  21.3 °C 66.6 °F /  19.2 °C 29.96 in /  1014.4 hPa Calm     88 % 0.00 in /  0 mm
03:46 70.2 °F /  21.2 °C 66.9 °F /  19.4 °C 29.96 in /  1014.4 hPa Calm     89 % 0.00 in /  0 mm
03:51 70.2 °F /  21.2 °C 66.5 °F /  19.2 °C 29.96 in /  1014.4 hPa Calm     88 % 0.00 in /  0 mm
03:56 70.1 °F /  21.2 °C 66.7 °F /  19.3 °C 29.96 in /  1014.4 hPa Calm     89 % 0.00 in /  0 mm
04:01 70.0 °F /  21.1 °C 66.6 °F /  19.2 °C 29.96 in /  1014.4 hPa Calm     89 % 0.00 in /  0 mm
04:05 69.9 °F /  21.1 °C 66.5 °F /  19.2 °C 29.96 in /  1014.4 hPa Calm     89 % 0.00 in /  0 mm
04:10 69.8 °F /  21 °C 66.4 °F /  19.1 °C 29.95 in /  1014.1 hPa Calm     89 % 0.00 in /  0 mm
04:15 69.8 °F /  21 °C 66.7 °F /  19.3 °C 29.96 in /  1014.4 hPa Calm     90 % 0.00 in /  0 mm
04:20 69.7 °F /  20.9 °C 66.6 °F /  19.2 °C 29.95 in /  1014.1 hPa Calm     90 % 0.00 in /  0 mm
04:25 69.6 °F /  20.9 °C 66.5 °F /  19.2 °C 29.96 in /  1014.4 hPa Calm     90 % 0.00 in /  0 mm
04:30 69.6 °F /  20.9 °C 66.5 °F /  19.2 °C 29.96 in /  1014.4 hPa Calm     90 % 0.00 in /  0 mm
04:35 69.6 °F /  20.9 °C 66.9 °F /  19.4 °C 29.96 in /  1014.4 hPa Calm     91 % 0.00 in /  0 mm
04:40 69.5 °F /  20.8 °C 66.8 °F /  19.3 °C 29.96 in /  1014.4 hPa Calm     91 % 0.00 in /  0 mm
04:45 69.4 °F /  20.8 °C 66.7 °F /  19.3 °C 29.96 in /  1014.4 hPa Calm     91 % 0.00 in /  0 mm
04:50 69.4 °F /  20.8 °C 66.7 °F /  19.3 °C 29.95 in /  1014.1 hPa Calm     91 % 0.00 in /  0 mm
04:55 69.3 °F /  20.7 °C 66.6 °F /  19.2 °C 29.96 in /  1014.4 hPa Calm     91 % 0.00 in /  0 mm
05:01 69.2 °F /  20.7 °C 66.5 °F /  19.2 °C 29.96 in /  1014.4 hPa Calm     91 % 0.00 in /  0 mm
05:06 69.1 °F /  20.6 °C 66.4 °F /  19.1 °C 29.96 in /  1014.4 hPa Calm     91 % 0.00 in /  0 mm
05:11 69.0 °F /  20.6 °C 66.3 °F /  19.1 °C 29.96 in /  1014.4 hPa Calm   1.0 mph /  1.6 km/h 91 % 0.00 in /  0 mm
05:16 69.0 °F /  20.6 °C 66.3 °F /  19.1 °C 29.96 in /  1014.4 hPa Calm     91 % 0.00 in /  0 mm
05:21 68.9 °F /  20.5 °C 66.2 °F /  19 °C 29.96 in /  1014.4 hPa Calm     91 % 0.00 in /  0 mm
05:26 68.8 °F /  20.4 °C 66.1 °F /  18.9 °C 29.97 in /  1014.8 hPa Calm     91 % 0.00 in /  0 mm
05:31 68.8 °F /  20.4 °C 66.1 °F /  18.9 °C 29.97 in /  1014.8 hPa Calm     91 % 0.00 in /  0 mm
05:36 68.8 °F /  20.4 °C 66.0 °F /  18.9 °C 29.97 in /  1014.8 hPa Calm     91 % 0.00 in /  0 mm
05:41 68.7 °F /  20.4 °C 66.0 °F /  18.9 °C 29.97 in /  1014.8 hPa Calm     91 % 0.00 in /  0 mm
05:46 68.6 °F /  20.3 °C 65.9 °F /  18.8 °C 29.97 in /  1014.8 hPa Calm     91 % 0.00 in /  0 mm
05:51 68.6 °F /  20.3 °C 65.9 °F /  18.8 °C 29.97 in /  1014.8 hPa Calm     91 % 0.00 in /  0 mm
05:56 68.6 °F /  20.3 °C 66.2 °F /  19 °C 29.98 in /  1015.1 hPa Calm   1.2 mph /  1.9 km/h 92 % 0.00 in /  0 mm
06:01 68.6 °F /  20.3 °C 66.2 °F /  19 °C 29.98 in /  1015.1 hPa Calm     92 % 0.00 in /  0 mm
06:06 68.6 °F /  20.3 °C 66.2 °F /  19 °C 29.98 in /  1015.1 hPa Calm     92 % 0.00 in /  0 mm
06:11 68.6 °F /  20.3 °C 66.5 °F /  19.2 °C 29.98 in /  1015.1 hPa Calm     93 % 0.00 in /  0 mm
06:16 68.6 °F /  20.3 °C 66.5 °F /  19.2 °C 29.98 in /  1015.1 hPa Calm     93 % 0.00 in /  0 mm
06:21 68.6 °F /  20.3 °C 66.5 °F /  19.2 °C 29.98 in /  1015.1 hPa Calm     93 % 0.00 in /  0 mm
06:26 68.6 °F /  20.3 °C 66.5 °F /  19.2 °C 29.98 in /  1015.1 hPa Calm     93 % 0.00 in /  0 mm
06:31 68.6 °F /  20.3 °C 66.5 °F /  19.2 °C 29.98 in /  1015.1 hPa Calm     93 % 0.00 in /  0 mm
06:36 68.8 °F /  20.4 °C 66.7 °F /  19.3 °C 29.98 in /  1015.1 hPa Calm     93 % 0.00 in /  0 mm
06:41 68.8 °F /  20.4 °C 66.7 °F /  19.3 °C 29.98 in /  1015.1 hPa Calm     93 % 0.00 in /  0 mm
06:46 68.9 °F /  20.5 °C 67.1 °F /  19.5 °C 29.99 in /  1015.5 hPa Calm     94 % 0.00 in /  0 mm
06:51 69.0 °F /  20.6 °C 67.2 °F /  19.6 °C 29.99 in /  1015.5 hPa Calm     94 % 0.00 in /  0 mm
06:56 69.2 °F /  20.7 °C 67.4 °F /  19.7 °C 29.99 in /  1015.5 hPa Calm     94 % 0.00 in /  0 mm
07:01 69.4 °F /  20.8 °C 67.9 °F /  19.9 °C 29.99 in /  1015.5 hPa Calm     95 % 0.00 in /  0 mm
07:06 69.7 °F /  20.9 °C 68.2 °F /  20.1 °C 29.99 in /  1015.5 hPa Calm     95 % 0.00 in /  0 mm
07:11 69.9 °F /  21.1 °C 68.4 °F /  20.2 °C 29.99 in /  1015.5 hPa Calm     95 % 0.00 in /  0 mm
07:16 70.3 °F /  21.3 °C 69.1 °F /  20.6 °C 29.99 in /  1015.5 hPa Calm     96 % 0.00 in /  0 mm
07:21 70.7 °F /  21.5 °C 69.5 °F /  20.8 °C 29.99 in /  1015.5 hPa Calm     96 % 0.00 in /  0 mm
07:26 71.0 °F /  21.7 °C 69.8 °F /  21 °C 30.00 in /  1015.8 hPa Calm   1.2 mph /  1.9 km/h 96 % 0.00 in /  0 mm
07:31 71.3 °F /  21.8 °C 70.1 °F /  21.2 °C 29.99 in /  1015.5 hPa WNW 2.3 mph /  3.7 km/h 4.0 mph /  6.4 km/h 96 % 0.00 in /  0 mm
07:36 71.5 °F /  21.9 °C 70.0 °F /  21.1 °C 30.00 in /  1015.8 hPa WNW 0.2 mph /  0.3 km/h 1.2 mph /  1.9 km/h 95 % 0.00 in /  0 mm
07:41 71.8 °F /  22.1 °C 70.3 °F /  21.3 °C 30.00 in /  1015.8 hPa Calm   1.2 mph /  1.9 km/h 95 % 0.00 in /  0 mm
07:46 72.0 °F /  22.2 °C 70.5 °F /  21.4 °C 29.99 in /  1015.5 hPa SW 0.3 mph /  0.5 km/h 1.2 mph /  1.9 km/h 95 % 0.00 in /  0 mm
07:51 72.2 °F /  22.3 °C 70.7 °F /  21.5 °C 30.00 in /  1015.8 hPa SW 0.1 mph /  0.2 km/h 1.0 mph /  1.6 km/h 95 % 0.00 in /  0 mm
07:56 72.5 °F /  22.5 °C 70.7 °F /  21.5 °C 30.00 in /  1015.8 hPa SW 0.6 mph /  1 km/h 2.3 mph /  3.7 km/h 94 % 0.00 in /  0 mm
08:01 72.8 °F /  22.7 °C 70.7 °F /  21.5 °C 30.00 in /  1015.8 hPa Calm     93 % 0.00 in /  0 mm
08:07 73.1 °F /  22.8 °C 71.0 °F /  21.7 °C 30.00 in /  1015.8 hPa SW 0.3 mph /  0.5 km/h 2.3 mph /  3.7 km/h 93 % 0.00 in /  0 mm
08:12 73.3 °F /  22.9 °C 70.8 °F /  21.6 °C 30.00 in /  1015.8 hPa SW 1.4 mph /  2.3 km/h 3.5 mph /  5.6 km/h 92 % 0.00 in /  0 mm
08:17 73.6 °F /  23.1 °C 70.8 °F /  21.6 °C 30.00 in /  1015.8 hPa SW 3.7 mph /  6 km/h 5.8 mph /  9.3 km/h 91 % 0.00 in /  0 mm
08:22 73.8 °F /  23.2 °C 70.4 °F /  21.3 °C 30.00 in /  1015.8 hPa SW 0.1 mph /  0.2 km/h 3.5 mph /  5.6 km/h 89 % 0.00 in /  0 mm
08:32 74.2 °F /  23.4 °C 70.7 °F /  21.5 °C 30.00 in /  1015.8 hPa Calm     89 % 0.00 in /  0 mm
08:37 74.4 °F /  23.6 °C 70.6 °F /  21.4 °C 30.00 in /  1015.8 hPa WSW 1.1 mph /  1.8 km/h 3.5 mph /  5.6 km/h 88 % 0.00 in /  0 mm
08:42 74.6 °F /  23.7 °C 70.5 °F /  21.4 °C 30.00 in /  1015.8 hPa Calm     87 % 0.00 in /  0 mm
08:47 74.8 °F /  23.8 °C 70.7 °F /  21.5 °C 30.01 in /  1016.1 hPa Calm     87 % 0.00 in /  0 mm
08:52 75.0 °F /  23.9 °C 70.9 °F /  21.6 °C 30.01 in /  1016.1 hPa Calm   1.2 mph /  1.9 km/h 87 % 0.00 in /  0 mm
08:57 75.2 °F /  24 °C 71.1 °F /  21.7 °C 30.01 in /  1016.1 hPa WSW 0.2 mph /  0.3 km/h 2.3 mph /  3.7 km/h 87 % 0.00 in /  0 mm
09:02 75.5 °F /  24.2 °C 71.4 °F /  21.9 °C 30.00 in /  1015.8 hPa Calm   1.2 mph /  1.9 km/h 87 % 0.00 in /  0 mm
09:07 75.8 °F /  24.3 °C 71.7 °F /  22.1 °C 30.01 in /  1016.1 hPa NW 0.4 mph /  0.6 km/h 3.5 mph /  5.6 km/h 87 % 0.00 in /  0 mm
09:12 75.9 °F /  24.4 °C 71.4 °F /  21.9 °C 30.01 in /  1016.1 hPa NNW 0.7 mph /  1.1 km/h 2.3 mph /  3.7 km/h 86 % 0.00 in /  0 mm
09:17 76.1 °F /  24.5 °C 71.6 °F /  22 °C 30.01 in /  1016.1 hPa NNW 0.3 mph /  0.5 km/h 2.0 mph /  3.2 km/h 86 % 0.00 in /  0 mm
09:22 76.2 °F /  24.6 °C 71.7 °F /  22.1 °C 30.01 in /  1016.1 hPa NNW 0.5 mph /  0.8 km/h 3.0 mph /  4.8 km/h 86 % 0.00 in /  0 mm
09:27 76.2 °F /  24.6 °C 71.7 °F /  22.1 °C 30.01 in /  1016.1 hPa Calm   2.3 mph /  3.7 km/h 86 % 0.00 in /  0 mm
09:32 76.2 °F /  24.6 °C 71.7 °F /  22.1 °C 30.01 in /  1016.1 hPa NNW 0.8 mph /  1.3 km/h 2.3 mph /  3.7 km/h 86 % 0.00 in /  0 mm
09:37 76.3 °F /  24.6 °C 71.5 °F /  21.9 °C 30.01 in /  1016.1 hPa NNW 0.1 mph /  0.2 km/h 1.0 mph /  1.6 km/h 85 % 0.00 in /  0 mm
09:42 76.5 °F /  24.7 °C 72.0 °F /  22.2 °C 30.01 in /  1016.1 hPa Calm   1.2 mph /  1.9 km/h 86 % 0.00 in /  0 mm
09:47 76.7 °F /  24.8 °C 72.2 °F /  22.3 °C 30.01 in /  1016.1 hPa North 0.3 mph /  0.5 km/h 2.0 mph /  3.2 km/h 86 % 0.00 in /  0 mm
09:52 76.9 °F /  24.9 °C 72.0 °F /  22.2 °C 30.01 in /  1016.1 hPa NNE 0.9 mph /  1.4 km/h 2.3 mph /  3.7 km/h 85 % 0.00 in /  0 mm
09:57 77.3 °F /  25.2 °C 72.4 °F /  22.4 °C 30.01 in /  1016.1 hPa NNE 0.8 mph /  1.3 km/h 2.3 mph /  3.7 km/h 85 % 0.00 in /  0 mm
10:02 77.8 °F /  25.4 °C 72.6 °F /  22.6 °C 30.01 in /  1016.1 hPa NNE 1.2 mph /  1.9 km/h 3.5 mph /  5.6 km/h 84 % 0.00 in /  0 mm
10:07 78.4 °F /  25.8 °C 72.8 °F /  22.7 °C 30.01 in /  1016.1 hPa Calm   2.3 mph /  3.7 km/h 83 % 0.00 in /  0 mm
10:12 79.1 °F /  26.2 °C 73.5 °F /  23.1 °C 30.01 in /  1016.1 hPa North 0.2 mph /  0.3 km/h 1.2 mph /  1.9 km/h 83 % 0.00 in /  0 mm
10:17 80.0 °F /  26.7 °C 73.3 °F /  22.9 °C 30.02 in /  1016.5 hPa NNE 0.9 mph /  1.4 km/h 2.3 mph /  3.7 km/h 80 % 0.00 in /  0 mm
10:23 80.9 °F /  27.2 °C 73.8 °F /  23.2 °C 30.01 in /  1016.1 hPa NE 0.3 mph /  0.5 km/h 2.3 mph /  3.7 km/h 79 % 0.00 in /  0 mm
10:28 81.8 °F /  27.7 °C 73.5 °F /  23.1 °C 30.01 in /  1016.1 hPa NE 0.3 mph /  0.5 km/h 1.2 mph /  1.9 km/h 76 % 0.00 in /  0 mm
10:33 82.6 °F /  28.1 °C 73.1 °F /  22.8 °C 30.01 in /  1016.1 hPa NE 1.0 mph /  1.6 km/h 2.3 mph /  3.7 km/h 73 % 0.00 in /  0 mm
10:38 83.4 °F /  28.6 °C 73.8 °F /  23.2 °C 30.01 in /  1016.1 hPa NNE 1.6 mph /  2.6 km/h 2.3 mph /  3.7 km/h 73 % 0.00 in /  0 mm
10:43 84.0 °F /  28.9 °C 74.0 °F /  23.3 °C 30.01 in /  1016.1 hPa ENE 1.3 mph /  2.1 km/h 3.5 mph /  5.6 km/h 72 % 0.00 in /  0 mm
10:48 84.7 °F /  29.3 °C 75.1 °F /  23.9 °C 30.01 in /  1016.1 hPa NE 0.3 mph /  0.5 km/h 3.5 mph /  5.6 km/h 73 % 0.00 in /  0 mm
10:53 85.3 °F /  29.6 °C 74.8 °F /  23.8 °C 30.01 in /  1016.1 hPa North 1.3 mph /  2.1 km/h 3.5 mph /  5.6 km/h 71 % 0.00 in /  0 mm
10:58 85.7 °F /  29.8 °C 74.4 °F /  23.6 °C 30.01 in /  1016.1 hPa NNE 1.8 mph /  2.9 km/h 3.5 mph /  5.6 km/h 69 % 0.00 in /  0 mm
11:03 86.0 °F /  30 °C 74.2 °F /  23.4 °C 30.01 in /  1016.1 hPa NNE 1.8 mph /  2.9 km/h 3.5 mph /  5.6 km/h 68 % 0.00 in /  0 mm
11:08 85.9 °F /  29.9 °C 74.1 °F /  23.4 °C 30.01 in /  1016.1 hPa NNE 2.1 mph /  3.4 km/h 3.5 mph /  5.6 km/h 68 % 0.00 in /  0 mm
11:13 85.8 °F /  29.9 °C 73.1 °F /  22.8 °C 30.01 in /  1016.1 hPa ENE 1.6 mph /  2.6 km/h 4.0 mph /  6.4 km/h 66 % 0.00 in /  0 mm
11:18 85.1 °F /  29.5 °C 72.9 °F /  22.7 °C 30.01 in /  1016.1 hPa NNE 0.5 mph /  0.8 km/h 3.5 mph /  5.6 km/h 67 % 0.00 in /  0 mm
11:23 84.6 °F /  29.2 °C 73.3 °F /  22.9 °C 30.01 in /  1016.1 hPa NNE 0.4 mph /  0.6 km/h 3.5 mph /  5.6 km/h 69 % 0.00 in /  0 mm
11:28 84.2 °F /  29 °C 73.8 °F /  23.2 °C 30.01 in /  1016.1 hPa Calm     71 % 0.00 in /  0 mm
11:33 83.7 °F /  28.7 °C 72.4 °F /  22.4 °C 30.01 in /  1016.1 hPa NE 0.5 mph /  0.8 km/h 1.2 mph /  1.9 km/h 69 % 0.00 in /  0 mm
11:38 83.0 °F /  28.3 °C 73.0 °F /  22.8 °C 30.01 in /  1016.1 hPa Calm   2.3 mph /  3.7 km/h 72 % 0.00 in /  0 mm
11:43 82.5 °F /  28.1 °C 72.6 °F /  22.6 °C 30.01 in /  1016.1 hPa NE 0.2 mph /  0.3 km/h 2.3 mph /  3.7 km/h 72 % 0.00 in /  0 mm
11:48 82.1 °F /  27.8 °C 72.6 °F /  22.6 °C 30.01 in /  1016.1 hPa Calm     73 % 0.00 in /  0 mm
11:53 81.7 °F /  27.6 °C 73.0 °F /  22.8 °C 30.01 in /  1016.1 hPa Calm     75 % 0.00 in /  0 mm
11:59 81.7 °F /  27.6 °C 73.8 °F /  23.2 °C 30.01 in /  1016.1 hPa NE 0.9 mph /  1.4 km/h 2.3 mph /  3.7 km/h 77 % 0.00 in /  0 mm
12:04 81.5 °F /  27.5 °C 72.8 °F /  22.7 °C 30.01 in /  1016.1 hPa NE 0.1 mph /  0.2 km/h 3.5 mph /  5.6 km/h 75 % 0.00 in /  0 mm
12:09 81.3 °F /  27.4 °C 73.0 °F /  22.8 °C 30.01 in /  1016.1 hPa Calm   1.2 mph /  1.9 km/h 76 % 0.00 in /  0 mm
12:14 81.3 °F /  27.4 °C 73.8 °F /  23.2 °C 30.02 in /  1016.5 hPa NE 0.3 mph /  0.5 km/h 2.3 mph /  3.7 km/h 78 % 0.00 in /  0 mm
12:19 81.3 °F /  27.4 °C 73.8 °F /  23.2 °C 30.02 in /  1016.5 hPa NE 1.1 mph /  1.8 km/h 3.5 mph /  5.6 km/h 78 % 0.00 in /  0 mm
12:24 81.6 °F /  27.6 °C 74.5 °F /  23.6 °C 30.01 in /  1016.1 hPa Calm   1.2 mph /  1.9 km/h 79 % 0.00 in /  0 mm
12:29 82.2 °F /  27.9 °C 74.7 °F /  23.7 °C 30.01 in /  1016.1 hPa ENE 0.1 mph /  0.2 km/h 3.5 mph /  5.6 km/h 78 % 0.00 in /  0 mm
12:34 82.5 °F /  28.1 °C 74.2 °F /  23.4 °C 30.01 in /  1016.1 hPa NE 1.3 mph /  2.1 km/h 3.5 mph /  5.6 km/h 76 % 0.00 in /  0 mm
12:39 82.5 °F /  28.1 °C 73.4 °F /  23 °C 30.01 in /  1016.1 hPa NNE 1.1 mph /  1.8 km/h 2.3 mph /  3.7 km/h 74 % 0.00 in /  0 mm
12:44 82.4 °F /  28 °C 73.7 °F /  23.2 °C 30.01 in /  1016.1 hPa NNE 0.1 mph /  0.2 km/h 2.3 mph /  3.7 km/h 75 % 0.00 in /  0 mm
12:49 82.5 °F /  28.1 °C 73.8 °F /  23.2 °C 30.01 in /  1016.1 hPa ENE 1.2 mph /  1.9 km/h 2.3 mph /  3.7 km/h 75 % 0.00 in /  0 mm
12:54 82.5 °F /  28.1 °C 74.6 °F /  23.7 °C 30.00 in /  1015.8 hPa NE 0.1 mph /  0.2 km/h 1.2 mph /  1.9 km/h 77 % 0.00 in /  0 mm
12:56 82.5 °F /  28.1 °C 74.6 °F /  23.7 °C 30.01 in /  1016.1 hPa Calm   1.0 mph /  1.6 km/h 77 % 0.00 in /  0 mm
13:01 83.1 °F /  28.4 °C 75.1 °F /  23.9 °C 30.01 in /  1016.1 hPa NE 0.5 mph /  0.8 km/h 1.2 mph /  1.9 km/h 77 % 0.00 in /  0 mm
13:06 83.5 °F /  28.6 °C 75.1 °F /  23.9 °C 30.00 in /  1015.8 hPa ESE 1.0 mph /  1.6 km/h 4.0 mph /  6.4 km/h 76 % 0.00 in /  0 mm
13:11 83.5 °F /  28.6 °C 72.7 °F /  22.6 °C 30.00 in /  1015.8 hPa SE 0.8 mph /  1.3 km/h 3.5 mph /  5.6 km/h 70 % 0.00 in /  0 mm
13:16 83.6 °F /  28.7 °C 71.5 °F /  21.9 °C 30.00 in /  1015.8 hPa SE 2.0 mph /  3.2 km/h 5.0 mph /  8 km/h 67 % 0.00 in /  0 mm
13:21 83.6 °F /  28.7 °C 71.0 °F /  21.7 °C 30.00 in /  1015.8 hPa Calm   5.0 mph /  8 km/h 66 % 0.00 in /  0 mm
13:26 83.5 °F /  28.6 °C 71.4 °F /  21.9 °C 30.00 in /  1015.8 hPa SE 1.0 mph /  1.6 km/h 8.0 mph /  12.9 km/h 67 % 0.00 in /  0 mm
13:31 83.6 °F /  28.7 °C 72.3 °F /  22.4 °C 30.00 in /  1015.8 hPa SSE 2.0 mph /  3.2 km/h 8.0 mph /  12.9 km/h 69 % 0.00 in /  0 mm
13:36 83.8 °F /  28.8 °C 73.8 °F /  23.2 °C 30.00 in /  1015.8 hPa Calm   4.0 mph /  6.4 km/h 72 % 0.00 in /  0 mm
13:41 84.1 °F /  28.9 °C 72.8 °F /  22.7 °C 30.00 in /  1015.8 hPa SSW 1.0 mph /  1.6 km/h 5.0 mph /  8 km/h 69 % 0.00 in /  0 mm
13:46 84.1 °F /  28.9 °C 72.0 °F /  22.2 °C 30.00 in /  1015.8 hPa SSE 1.0 mph /  1.6 km/h 8.0 mph /  12.9 km/h 67 % 0.00 in /  0 mm
13:51 83.9 °F /  28.8 °C 71.3 °F /  21.8 °C 29.99 in /  1015.5 hPa SE 1.0 mph /  1.6 km/h 10.0 mph /  16.1 km/h 66 % 0.00 in /  0 mm
13:56 83.9 °F /  28.8 °C 71.8 °F /  22.1 °C 30.00 in /  1015.8 hPa SE 5.0 mph /  8 km/h 10.0 mph /  16.1 km/h 67 % 0.00 in /  0 mm
14:01 83.8 °F /  28.8 °C 71.7 °F /  22.1 °C 29.99 in /  1015.5 hPa SE 1.0 mph /  1.6 km/h 4.6 mph /  7.4 km/h 67 % 0.00 in /  0 mm
14:06 83.6 °F /  28.7 °C 71.5 °F /  21.9 °C 29.99 in /  1015.5 hPa South 3.0 mph /  4.8 km/h 6.9 mph /  11.1 km/h 67 % 0.00 in /  0 mm
14:11 83.3 °F /  28.5 °C 71.6 °F /  22 °C 29.99 in /  1015.5 hPa SSE 2.2 mph /  3.5 km/h 5.0 mph /  8 km/h 68 % 0.00 in /  0 mm
14:16 82.9 °F /  28.3 °C 71.7 °F /  22.1 °C 29.99 in /  1015.5 hPa SE 1.3 mph /  2.1 km/h 3.5 mph /  5.6 km/h 69 % 0.00 in /  0 mm
14:21 82.7 °F /  28.2 °C 71.5 °F /  21.9 °C 29.99 in /  1015.5 hPa SSE 0.9 mph /  1.4 km/h 5.8 mph /  9.3 km/h 69 % 0.00 in /  0 mm
14:26 82.8 °F /  28.2 °C 72.4 °F /  22.4 °C 29.99 in /  1015.5 hPa South 1.7 mph /  2.7 km/h 4.0 mph /  6.4 km/h 71 % 0.00 in /  0 mm
14:31 83.0 °F /  28.3 °C 73.4 °F /  23 °C 29.99 in /  1015.5 hPa South 0.3 mph /  0.5 km/h 2.3 mph /  3.7 km/h 73 % 0.00 in /  0 mm
14:36 83.5 °F /  28.6 °C 74.7 °F /  23.7 °C 29.99 in /  1015.5 hPa SSW 2.4 mph /  3.9 km/h 5.0 mph /  8 km/h 75 % 0.00 in /  0 mm
14:41 83.9 °F /  28.8 °C 73.1 °F /  22.8 °C 29.99 in /  1015.5 hPa South 0.6 mph /  1 km/h 3.5 mph /  5.6 km/h 70 % 0.00 in /  0 mm
14:42 84.0 °F /  28.9 °C 73.2 °F /  22.9 °C 29.99 in /  1015.5 hPa South 1.0 mph /  1.6 km/h 3.5 mph /  5.6 km/h 70 % 0.00 in /  0 mm
14:47 84.0 °F /  28.9 °C 72.3 °F /  22.4 °C 29.99 in /  1015.5 hPa SSW 2.2 mph /  3.5 km/h 6.9 mph /  11.1 km/h 68 % 0.00 in /  0 mm
14:52 84.1 °F /  28.9 °C 72.8 °F /  22.7 °C 29.99 in /  1015.5 hPa SE 2.0 mph /  3.2 km/h 3.5 mph /  5.6 km/h 69 % 0.00 in /  0 mm
14:57 84.3 °F /  29.1 °C 73.9 °F /  23.3 °C 29.99 in /  1015.5 hPa SE 1.8 mph /  2.9 km/h 3.5 mph /  5.6 km/h 71 % 0.00 in /  0 mm
15:03 84.4 °F /  29.1 °C 74.0 °F /  23.3 °C 29.99 in /  1015.5 hPa SSE 1.3 mph /  2.1 km/h 3.0 mph /  4.8 km/h 71 % 0.00 in /  0 mm
15:08 84.4 °F /  29.1 °C 73.1 °F /  22.8 °C 29.99 in /  1015.5 hPa South 1.1 mph /  1.8 km/h 5.8 mph /  9.3 km/h 69 % 0.00 in /  0 mm
15:13 84.5 °F /  29.2 °C 73.2 °F /  22.9 °C 29.99 in /  1015.5 hPa SSE 4.1 mph /  6.6 km/h 8.1 mph /  13 km/h 69 % 0.00 in /  0 mm
15:18 84.3 °F /  29.1 °C 73.0 °F /  22.8 °C 29.99 in /  1015.5 hPa SE 4.8 mph /  7.7 km/h 9.2 mph /  14.8 km/h 69 % 0.00 in /  0 mm
15:23 83.6 °F /  28.7 °C 72.3 °F /  22.4 °C 29.99 in /  1015.5 hPa SE 2.7 mph /  4.3 km/h 10.4 mph /  16.7 km/h 69 % 0.00 in /  0 mm
15:28 83.3 °F /  28.5 °C 72.1 °F /  22.3 °C 29.99 in /  1015.5 hPa SSE 3.8 mph /  6.1 km/h 8.1 mph /  13 km/h 69 % 0.00 in /  0 mm
15:33 83.2 °F /  28.4 °C 72.0 °F /  22.2 °C 29.99 in /  1015.5 hPa SSE 2.3 mph /  3.7 km/h 5.8 mph /  9.3 km/h 69 % 0.00 in /  0 mm
15:38 83.2 °F /  28.4 °C 72.4 °F /  22.4 °C 29.99 in /  1015.5 hPa SE 2.8 mph /  4.5 km/h 5.8 mph /  9.3 km/h 70 % 0.00 in /  0 mm
15:43 83.2 °F /  28.4 °C 72.0 °F /  22.2 °C 29.99 in /  1015.5 hPa ESE 5.7 mph /  9.2 km/h 8.1 mph /  13 km/h 69 % 0.00 in /  0 mm
15:48 83.2 °F /  28.4 °C 72.0 °F /  22.2 °C 29.99 in /  1015.5 hPa SE 0.3 mph /  0.5 km/h 3.5 mph /  5.6 km/h 69 % 0.00 in /  0 mm
15:53 83.3 °F /  28.5 °C 71.6 °F /  22 °C 29.99 in /  1015.5 hPa SE 1.5 mph /  2.4 km/h 7.0 mph /  11.3 km/h 68 % 0.00 in /  0 mm
15:58 83.5 °F /  28.6 °C 72.3 °F /  22.4 °C 29.99 in /  1015.5 hPa SW 2.6 mph /  4.2 km/h 5.0 mph /  8 km/h 69 % 0.00 in /  0 mm
16:03 84.0 °F /  28.9 °C 73.6 °F /  23.1 °C 29.99 in /  1015.5 hPa South 0.2 mph /  0.3 km/h 2.3 mph /  3.7 km/h 71 % 0.00 in /  0 mm
16:08 84.4 °F /  29.1 °C 72.2 °F /  22.3 °C 29.99 in /  1015.5 hPa SSW 4.1 mph /  6.6 km/h 6.9 mph /  11.1 km/h 67 % 0.00 in /  0 mm
16:13 84.8 °F /  29.3 °C 73.1 °F /  22.8 °C 29.99 in /  1015.5 hPa South 0.3 mph /  0.5 km/h 2.0 mph /  3.2 km/h 68 % 0.00 in /  0 mm
16:18 85.1 °F /  29.5 °C 72.0 °F /  22.2 °C 29.99 in /  1015.5 hPa SSE 3.4 mph /  5.5 km/h 6.9 mph /  11.1 km/h 65 % 0.00 in /  0 mm
16:23 85.2 °F /  29.6 °C 71.2 °F /  21.8 °C 29.99 in /  1015.5 hPa SE 2.6 mph /  4.2 km/h 5.0 mph /  8 km/h 63 % 0.00 in /  0 mm
16:28 85.0 °F /  29.4 °C 71.0 °F /  21.7 °C 29.99 in /  1015.5 hPa SE 0.4 mph /  0.6 km/h 9.2 mph /  14.8 km/h 63 % 0.00 in /  0 mm
16:33 84.9 °F /  29.4 °C 71.4 °F /  21.9 °C 29.99 in /  1015.5 hPa SSE 0.9 mph /  1.4 km/h 6.9 mph /  11.1 km/h 64 % 0.00 in /  0 mm
16:38 84.8 °F /  29.3 °C 71.7 °F /  22.1 °C 29.99 in /  1015.5 hPa SSW 1.4 mph /  2.3 km/h 4.0 mph /  6.4 km/h 65 % 0.00 in /  0 mm
16:43 84.8 °F /  29.3 °C 71.3 °F /  21.8 °C 29.99 in /  1015.5 hPa SW 0.6 mph /  1 km/h 2.3 mph /  3.7 km/h 64 % 0.00 in /  0 mm
16:48 84.8 °F /  29.3 °C 71.3 °F /  21.8 °C 30.00 in /  1015.8 hPa SSE 2.0 mph /  3.2 km/h 3.5 mph /  5.6 km/h 64 % 0.00 in /  0 mm
16:53 84.7 °F /  29.3 °C 70.7 °F /  21.5 °C 29.99 in /  1015.5 hPa SE 1.1 mph /  1.8 km/h 4.0 mph /  6.4 km/h 63 % 0.00 in /  0 mm
16:54 84.7 °F /  29.3 °C 70.7 °F /  21.5 °C 29.99 in /  1015.5 hPa SE 3.9 mph /  6.3 km/h 10.4 mph /  16.7 km/h 63 % 0.00 in /  0 mm
16:59 84.5 °F /  29.2 °C 71.0 °F /  21.7 °C 29.99 in /  1015.5 hPa SSW 2.4 mph /  3.9 km/h 4.6 mph /  7.4 km/h 64 % 0.00 in /  0 mm
17:04 84.5 °F /  29.2 °C 69.6 °F /  20.9 °C 29.99 in /  1015.5 hPa SW 3.1 mph /  5 km/h 5.8 mph /  9.3 km/h 61 % 0.00 in /  0 mm
17:09 84.5 °F /  29.2 °C 70.5 °F /  21.4 °C 29.99 in /  1015.5 hPa SSE 3.1 mph /  5 km/h 6.9 mph /  11.1 km/h 63 % 0.00 in /  0 mm
17:14 84.4 °F /  29.1 °C 70.4 °F /  21.3 °C 29.99 in /  1015.5 hPa SSE 4.8 mph /  7.7 km/h 10.4 mph /  16.7 km/h 63 % 0.00 in /  0 mm
17:19 84.2 °F /  29 °C 69.3 °F /  20.7 °C 29.99 in /  1015.5 hPa SE 2.2 mph /  3.5 km/h 6.0 mph /  9.7 km/h 61 % 0.00 in /  0 mm
17:24 83.8 °F /  28.8 °C 69.9 °F /  21.1 °C 29.99 in /  1015.5 hPa SE 1.0 mph /  1.6 km/h 3.5 mph /  5.6 km/h 63 % 0.00 in /  0 mm
17:29 83.6 °F /  28.7 °C 70.1 °F /  21.2 °C 29.99 in /  1015.5 hPa WSW 1.1 mph /  1.8 km/h 3.5 mph /  5.6 km/h 64 % 0.00 in /  0 mm
17:34 83.6 °F /  28.7 °C 70.1 °F /  21.2 °C 29.99 in /  1015.5 hPa SW 0.5 mph /  0.8 km/h 2.3 mph /  3.7 km/h 64 % 0.00 in /  0 mm
17:39 83.4 °F /  28.6 °C 70.4 °F /  21.3 °C 29.99 in /  1015.5 hPa South 0.6 mph /  1 km/h 2.3 mph /  3.7 km/h 65 % 0.00 in /  0 mm
17:44 83.3 °F /  28.5 °C 70.3 °F /  21.3 °C 30.00 in /  1015.8 hPa SSW 1.8 mph /  2.9 km/h 4.6 mph /  7.4 km/h 65 % 0.00 in /  0 mm
17:49 83.1 °F /  28.4 °C 70.6 °F /  21.4 °C 30.00 in /  1015.8 hPa SSE 0.4 mph /  0.6 km/h 2.3 mph /  3.7 km/h 66 % 0.00 in /  0 mm
17:54 82.9 °F /  28.3 °C 70.4 °F /  21.3 °C 30.00 in /  1015.8 hPa South 2.3 mph /  3.7 km/h 6.9 mph /  11.1 km/h 66 % 0.00 in /  0 mm
17:59 82.7 °F /  28.2 °C 70.6 °F /  21.4 °C 30.00 in /  1015.8 hPa SSE 0.9 mph /  1.4 km/h 4.0 mph /  6.4 km/h 67 % 0.00 in /  0 mm
18:04 82.6 °F /  28.1 °C 71.0 °F /  21.7 °C 30.00 in /  1015.8 hPa Calm   1.2 mph /  1.9 km/h 68 % 0.00 in /  0 mm
18:09 82.4 °F /  28 °C 70.8 °F /  21.6 °C 30.00 in /  1015.8 hPa SE 0.2 mph /  0.3 km/h 1.2 mph /  1.9 km/h 68 % 0.00 in /  0 mm
18:14 82.3 °F /  27.9 °C 70.7 °F /  21.5 °C 30.00 in /  1015.8 hPa South 1.9 mph /  3.1 km/h 3.5 mph /  5.6 km/h 68 % 0.00 in /  0 mm
18:19 82.1 °F /  27.8 °C 70.9 °F /  21.6 °C 30.00 in /  1015.8 hPa SE 0.1 mph /  0.2 km/h 1.2 mph /  1.9 km/h 69 % 0.00 in /  0 mm
18:24 82.0 °F /  27.8 °C 71.2 °F /  21.8 °C 30.01 in /  1016.1 hPa SW 2.2 mph /  3.5 km/h 5.0 mph /  8 km/h 70 % 0.00 in /  0 mm
18:29 81.9 °F /  27.7 °C 71.6 °F /  22 °C 30.01 in /  1016.1 hPa SW 0.2 mph /  0.3 km/h 1.2 mph /  1.9 km/h 71 % 0.00 in /  0 mm
18:34 81.8 °F /  27.7 °C 71.1 °F /  21.7 °C 30.01 in /  1016.1 hPa SSE 2.4 mph /  3.9 km/h 6.0 mph /  9.7 km/h 70 % 0.00 in /  0 mm
18:39 81.4 °F /  27.4 °C 71.1 °F /  21.7 °C 30.01 in /  1016.1 hPa SE 2.3 mph /  3.7 km/h 7.0 mph /  11.3 km/h 71 % 0.00 in /  0 mm
18:44 81.1 °F /  27.3 °C 71.2 °F /  21.8 °C 30.01 in /  1016.1 hPa SSE 1.1 mph /  1.8 km/h 4.6 mph /  7.4 km/h 72 % 0.00 in /  0 mm
18:49 80.9 °F /  27.2 °C 71.4 °F /  21.9 °C 30.01 in /  1016.1 hPa SE 5.6 mph /  9 km/h 10.4 mph /  16.7 km/h 73 % 0.00 in /  0 mm
18:54 80.5 °F /  26.9 °C 71.0 °F /  21.7 °C 30.01 in /  1016.1 hPa SE 3.6 mph /  5.8 km/h 7.0 mph /  11.3 km/h 73 % 0.00 in /  0 mm
18:59 80.3 °F /  26.8 °C 71.3 °F /  21.8 °C 30.01 in /  1016.1 hPa SE 1.3 mph /  2.1 km/h 2.3 mph /  3.7 km/h 74 % 0.00 in /  0 mm
19:04 80.0 °F /  26.7 °C 71.0 °F /  21.7 °C 30.01 in /  1016.1 hPa SE 2.6 mph /  4.2 km/h 4.6 mph /  7.4 km/h 74 % 0.00 in /  0 mm
19:09 79.8 °F /  26.6 °C 71.2 °F /  21.8 °C 30.01 in /  1016.1 hPa Calm   2.3 mph /  3.7 km/h 75 % 0.00 in /  0 mm
19:14 79.7 °F /  26.5 °C 71.1 °F /  21.7 °C 30.01 in /  1016.1 hPa SE 4.7 mph /  7.6 km/h 8.1 mph /  13 km/h 75 % 0.00 in /  0 mm
19:19 79.5 °F /  26.4 °C 71.7 °F /  22.1 °C 30.01 in /  1016.1 hPa SE 2.0 mph /  3.2 km/h 4.6 mph /  7.4 km/h 77 % 0.00 in /  0 mm
19:24 79.4 °F /  26.3 °C 71.6 °F /  22 °C 30.01 in /  1016.1 hPa SE 0.1 mph /  0.2 km/h 3.5 mph /  5.6 km/h 77 % 0.00 in /  0 mm
19:29 79.3 °F /  26.3 °C 71.8 °F /  22.1 °C 30.02 in /  1016.5 hPa Calm     78 % 0.00 in /  0 mm
19:34 79.2 °F /  26.2 °C 71.7 °F /  22.1 °C 30.02 in /  1016.5 hPa SSE 1.2 mph /  1.9 km/h 3.0 mph /  4.8 km/h 78 % 0.00 in /  0 mm
19:39 79.1 °F /  26.2 °C 72.0 °F /  22.2 °C 30.02 in /  1016.5 hPa SSE 0.3 mph /  0.5 km/h 1.2 mph /  1.9 km/h 79 % 0.00 in /  0 mm
19:44 79.0 °F /  26.1 °C 71.9 °F /  22.2 °C 30.03 in /  1016.8 hPa SW 0.3 mph /  0.5 km/h 1.0 mph /  1.6 km/h 79 % 0.00 in /  0 mm
19:49 78.9 °F /  26.1 °C 71.8 °F /  22.1 °C 30.03 in /  1016.8 hPa Calm   2.3 mph /  3.7 km/h 79 % 0.00 in /  0 mm
19:54 78.8 °F /  26 °C 72.1 °F /  22.3 °C 30.02 in /  1016.5 hPa SW 0.1 mph /  0.2 km/h 2.0 mph /  3.2 km/h 80 % 0.00 in /  0 mm
19:59 78.7 °F /  25.9 °C 72.0 °F /  22.2 °C 30.03 in /  1016.8 hPa Calm   1.2 mph /  1.9 km/h 80 % 0.00 in /  0 mm
20:05 78.6 °F /  25.9 °C 71.9 °F /  22.2 °C 30.03 in /  1016.8 hPa Calm   1.2 mph /  1.9 km/h 80 % 0.00 in /  0 mm
20:10 78.5 °F /  25.8 °C 72.2 °F /  22.3 °C 30.02 in /  1016.5 hPa SW 0.8 mph /  1.3 km/h 2.3 mph /  3.7 km/h 81 % 0.00 in /  0 mm
20:15 78.3 °F /  25.7 °C 72.0 °F /  22.2 °C 30.03 in /  1016.8 hPa Calm     81 % 0.00 in /  0 mm
20:20 78.2 °F /  25.7 °C 71.9 °F /  22.2 °C 30.02 in /  1016.5 hPa SW 0.2 mph /  0.3 km/h 1.2 mph /  1.9 km/h 81 % 0.00 in /  0 mm
20:25 78.1 °F /  25.6 °C 71.8 °F /  22.1 °C 30.03 in /  1016.8 hPa Calm     81 % 0.00 in /  0 mm
20:30 77.9 °F /  25.5 °C 71.6 °F /  22 °C 30.03 in /  1016.8 hPa Calm     81 % 0.00 in /  0 mm
20:35 77.8 °F /  25.4 °C 71.5 °F /  21.9 °C 30.03 in /  1016.8 hPa Calm   1.2 mph /  1.9 km/h 81 % 0.00 in /  0 mm
20:40 77.6 °F /  25.3 °C 71.7 °F /  22.1 °C 30.02 in /  1016.5 hPa Calm     82 % 0.00 in /  0 mm
20:45 77.5 °F /  25.3 °C 71.6 °F /  22 °C 30.02 in /  1016.5 hPa Calm     82 % 0.00 in /  0 mm
20:50 77.4 °F /  25.2 °C 71.5 °F /  21.9 °C 30.02 in /  1016.5 hPa Calm     82 % 0.00 in /  0 mm
20:55 77.2 °F /  25.1 °C 71.3 °F /  21.8 °C 30.02 in /  1016.5 hPa Calm     82 % 0.00 in /  0 mm
21:00 77.1 °F /  25.1 °C 71.5 °F /  21.9 °C 30.02 in /  1016.5 hPa Calm     83 % 0.00 in /  0 mm
21:05 76.9 °F /  24.9 °C 71.3 °F /  21.8 °C 30.02 in /  1016.5 hPa Calm     83 % 0.00 in /  0 mm
21:10 76.8 °F /  24.9 °C 71.6 °F /  22 °C 30.02 in /  1016.5 hPa Calm   1.2 mph /  1.9 km/h 84 % 0.00 in /  0 mm
21:15 76.6 °F /  24.8 °C 71.7 °F /  22.1 °C 30.01 in /  1016.1 hPa SSE 0.3 mph /  0.5 km/h 1.2 mph /  1.9 km/h 85 % 0.00 in /  0 mm
21:20 76.5 °F /  24.7 °C 71.7 °F /  22.1 °C 30.01 in /  1016.1 hPa Calm     85 % 0.00 in /  0 mm
21:25 76.3 °F /  24.6 °C 71.5 °F /  21.9 °C 30.02 in /  1016.5 hPa Calm     85 % 0.00 in /  0 mm
21:30 76.2 °F /  24.6 °C 71.4 °F /  21.9 °C 30.03 in /  1016.8 hPa Calm     85 % 0.00 in /  0 mm
21:35 76.1 °F /  24.5 °C 71.3 °F /  21.8 °C 30.03 in /  1016.8 hPa Calm     85 % 0.00 in /  0 mm
21:40 76.0 °F /  24.4 °C 71.2 °F /  21.8 °C 30.02 in /  1016.5 hPa Calm     85 % 0.00 in /  0 mm
21:45 75.8 °F /  24.3 °C 71.3 °F /  21.8 °C 30.02 in /  1016.5 hPa Calm     86 % 0.00 in /  0 mm
21:50 75.8 °F /  24.3 °C 71.7 °F /  22.1 °C 30.02 in /  1016.5 hPa SSE 0.1 mph /  0.2 km/h 1.2 mph /  1.9 km/h 87 % 0.00 in /  0 mm
21:55 75.7 °F /  24.3 °C 71.9 °F /  22.2 °C 30.02 in /  1016.5 hPa SSE 0.9 mph /  1.4 km/h 1.2 mph /  1.9 km/h 88 % 0.00 in /  0 mm
22:00 75.5 °F /  24.2 °C 72.0 °F /  22.2 °C 30.02 in /  1016.5 hPa SSE 0.6 mph /  1 km/h 2.0 mph /  3.2 km/h 89 % 0.00 in /  0 mm
22:05 75.4 °F /  24.1 °C 71.9 °F /  22.2 °C 30.01 in /  1016.1 hPa SE 2.2 mph /  3.5 km/h 3.5 mph /  5.6 km/h 89 % 0.00 in /  0 mm
22:11 75.4 °F /  24.1 °C 71.9 °F /  22.2 °C 30.01 in /  1016.1 hPa SE 1.0 mph /  1.6 km/h 5.0 mph /  8 km/h 89 % 0.00 in /  0 mm
22:16 75.3 °F /  24.1 °C 72.2 °F /  22.3 °C 30.01 in /  1016.1 hPa SE 2.0 mph /  3.2 km/h 5.0 mph /  8 km/h 90 % 0.00 in /  0 mm
22:21 75.3 °F /  24.1 °C 72.2 °F /  22.3 °C 30.01 in /  1016.1 hPa SE 2.0 mph /  3.2 km/h 6.0 mph /  9.7 km/h 90 % 0.00 in /  0 mm
22:26 75.3 °F /  24.1 °C 72.5 °F /  22.5 °C 30.01 in /  1016.1 hPa SE 3.0 mph /  4.8 km/h 8.0 mph /  12.9 km/h 91 % 0.00 in /  0 mm
22:31 75.3 °F /  24.1 °C 72.5 °F /  22.5 °C 30.02 in /  1016.5 hPa Calm   4.0 mph /  6.4 km/h 91 % 0.00 in /  0 mm
22:36 75.3 °F /  24.1 °C 72.5 °F /  22.5 °C 30.02 in /  1016.5 hPa Calm   6.0 mph /  9.7 km/h 91 % 0.00 in /  0 mm
22:41 75.3 °F /  24.1 °C 72.5 °F /  22.5 °C 30.02 in /  1016.5 hPa Calm   3.0 mph /  4.8 km/h 91 % 0.00 in /  0 mm
22:46 75.3 °F /  24.1 °C 72.5 °F /  22.5 °C 30.02 in /  1016.5 hPa Calm   2.0 mph /  3.2 km/h 91 % 0.00 in /  0 mm
22:51 75.3 °F /  24.1 °C 72.5 °F /  22.5 °C 30.02 in /  1016.5 hPa Calm   2.0 mph /  3.2 km/h 91 % 0.00 in /  0 mm
22:56 75.2 °F /  24 °C 72.8 °F /  22.7 °C 30.02 in /  1016.5 hPa Calm   3.0 mph /  4.8 km/h 92 % 0.00 in /  0 mm
23:01 75.2 °F /  24 °C 72.7 °F /  22.6 °C 30.02 in /  1016.5 hPa Calm     92 % 0.00 in /  0 mm
23:06 75.2 °F /  24 °C 72.7 °F /  22.6 °C 30.03 in /  1016.8 hPa SE 0.5 mph /  0.8 km/h 2.3 mph /  3.7 km/h 92 % 0.00 in /  0 mm
23:11 75.2 °F /  24 °C 72.7 °F /  22.6 °C 30.03 in /  1016.8 hPa SE 0.2 mph /  0.3 km/h 1.2 mph /  1.9 km/h 92 % 0.00 in /  0 mm
23:16 75.1 °F /  23.9 °C 72.6 °F /  22.6 °C 30.03 in /  1016.8 hPa WNW 0.3 mph /  0.5 km/h 2.3 mph /  3.7 km/h 92 % 0.00 in /  0 mm
23:21 75.1 °F /  23.9 °C 72.6 °F /  22.6 °C 30.03 in /  1016.8 hPa WNW 0.2 mph /  0.3 km/h 1.2 mph /  1.9 km/h 92 % 0.00 in /  0 mm
23:26 75.1 °F /  23.9 °C 72.6 °F /  22.6 °C 30.04 in /  1017.2 hPa Calm     92 % 0.00 in /  0 mm
23:31 75.1 °F /  23.9 °C 72.6 °F /  22.6 °C 30.03 in /  1016.8 hPa SW 0.2 mph /  0.3 km/h 4.6 mph /  7.4 km/h 92 % 0.00 in /  0 mm
23:32 75.1 °F /  23.9 °C 72.6 °F /  22.6 °C 30.03 in /  1016.8 hPa Calm     92 % 0.00 in /  0 mm
23:37 75.0 °F /  23.9 °C 72.5 °F /  22.5 °C 30.03 in /  1016.8 hPa Calm     92 % 0.00 in /  0 mm
23:42 75.0 °F /  23.9 °C 72.5 °F /  22.5 °C 30.03 in /  1016.8 hPa Calm   1.0 mph /  1.6 km/h 92 % 0.00 in /  0 mm
23:45 75.0 °F /  23.9 °C 72.5 °F /  22.5 °C 30.03 in /  1016.8 hPa Calm     92 % 0.00 in /  0 mm
23:50 74.9 °F /  23.8 °C 72.4 °F /  22.4 °C 30.03 in /  1016.8 hPa Calm     92 % 0.00 in /  0 mm
23:55 74.9 °F /  23.8 °C 72.4 °F /  22.4 °C 30.03 in /  1016.8 hPa Calm     92 % 0.00 in /  0 mm
Crab Meadow Weather
Compliments of Weather Underground - 3 mb

Script developed by  Jim McMurry - jmcmurry@mwt.net Adapted for the template by  Wim van der Kuil - Leuven-Template.eu

Extremes: The longest period without measurable rainfall in the United States was 767 days at Bagdad, California.